ADDS METAR Data INFO
IDs: Format: Raw Decoded Include TAF

Data at: 1133 UTC 29 May 2017

KPYX 291115Z AUTO 23007KT 10SM CLR 11/07 A3011 RMK AO2 T01110074
KPYX 291055Z AUTO 24006KT 10SM CLR 12/07 A3011 RMK AO2 T01150073
KPYX 291035Z AUTO 24005KT 10SM CLR 11/08 A3011 RMK AO2 T01140075
KPYX 291015Z AUTO 23005KT 10SM CLR 11/08 A3012 RMK AO2 T01110075
KPYX 290955Z AUTO 22005KT 10SM CLR 11/07 A3013 RMK AO2 T01140074
KPYX 290935Z AUTO 19007KT 10SM CLR 12/07 A3013 RMK AO2 T01160074
KPYX 290915Z AUTO 20005KT 10SM CLR 12/08 A3013 RMK AO2 T01200075
KPYX 290855Z AUTO 20005KT 10SM CLR 12/08 A3013 RMK AO2 T01200075
KPYX 290835Z AUTO 20005KT 10SM CLR 12/08 A3013 RMK AO2 T01200075
KPYX 290815Z AUTO 19003KT 10SM CLR 12/07 A3013 RMK AO2 T01210074
KPYX 290755Z AUTO 00000KT 10SM CLR 14/08 A3013 RMK AO2 T01400076
KPYX 290735Z AUTO 00000KT 10SM CLR 14/08 A3013 RMK AO2 T01440078
KPYX 290715Z AUTO 03004KT 10SM CLR 14/08 A3013 RMK AO2 T01350078
KPYX 290655Z AUTO 00000KT 10SM CLR 15/08 A3012 RMK AO2 T01450080
KPYX 290635Z AUTO 00000KT 10SM CLR 15/07 A3012 RMK AO2 T01490074
KPYX 290615Z AUTO 26003KT 10SM CLR 15/07 A3012 RMK AO2 T01500073
KPYX 290555Z AUTO 26007KT 10SM CLR 16/07 A3011 RMK AO2 T01580072 10266 20151 402750122
KPYX 290535Z AUTO 27006KT 10SM CLR 16/08 A3010 RMK AO2 T01560076
KPYX 290515Z AUTO 26006KT 10SM CLR 16/08 A3010 RMK AO2 T01550076
KPYX 290455Z AUTO 28007KT 10SM CLR 16/08 A3010 RMK AO2 T01570077
KPYX 290435Z AUTO 28005KT 10SM CLR 16/08 A3010 RMK AO2 T01610078
KPYX 290415Z AUTO 27006KT 10SM CLR 16/08 A3010 RMK AO2 T01640081
KPYX 290355Z AUTO 28005KT 10SM CLR 18/08 A3009 RMK AO2 T01750082
KPYX 290335Z AUTO 29003KT 10SM CLR 18/08 A3009 RMK AO2 T01770079
KPYX 290315Z AUTO 30005KT 10SM CLR 18/08 A3009 RMK AO2 T01770079
KPYX 290255Z AUTO 30005KT 10SM CLR 19/07 A3009 RMK AO2 T01850069
KPYX 290235Z AUTO 29006KT 10SM CLR 20/07 A3009 RMK AO2 T02000070
KPYX 290215Z AUTO 00000KT 10SM CLR 21/07 A3009 RMK AO2 T02060071
KPYX 290155Z AUTO 31004KT 10SM CLR 22/07 A3009 RMK AO2 T02160074
KPYX 290135Z AUTO 32005KT 10SM CLR 24/05 A3009 RMK AO2 T02370053
KPYX 290115Z AUTO 32004KT 10SM CLR 25/04 A3009 RMK AO2 T02500043
KPYX 290055Z AUTO 34006KT 10SM CLR 26/03 A3009 RMK AO2 T02570030
KPYX 290035Z AUTO 35007KT 10SM CLR 26/03 A3008 RMK AO2 T02610025
KPYX 290015Z AUTO 36009KT 7SM CLR 27/03 A3009 RMK AO2 T02650028
KPYX 282355Z AUTO 35009KT 10SM CLR 26/03 A3009 RMK AO2 T02580027 10275 20241
KPYX 282335Z AUTO 33011KT 10SM CLR 27/03 A3009 RMK AO2 T02650030
KPYX 282315Z AUTO 32006KT 10SM SCT090 27/03 A3010 RMK AO2 T02650029
KPYX 282255Z AUTO 01008G15KT 10SM SCT090 27/03 A3010 RMK AO2 T02700032
KPYX 282235Z AUTO 33010KT 10SM CLR 26/03 A3011 RMK AO2 T02620029
KPYX 282215Z AUTO 33006G14KT 10SM SCT085 26/03 A3012 RMK AO2 T02630028
KPYX 282155Z AUTO 33010KT 7SM SCT085 27/03 A3012 RMK AO2 T02650031
KPYX 282135Z AUTO 33009G15KT 10SM SCT085 27/03 A3013 RMK AO2 T02720031
KPYX 282115Z AUTO 33012G17KT 10SM SCT085 27/03 A3013 RMK AO2 T02670032
KPYX 282055Z AUTO 34010G16KT 10SM SCT085 26/03 A3013 RMK AO2 T02610028
KPYX 282035Z AUTO 34005G08KT 10SM CLR 26/03 A3013 RMK AO2 T02570034
KPYX 282015Z AUTO 36009G18KT 10SM CLR 26/04 A3014 RMK AO2 T02590042
KPYX 281955Z AUTO 04007G14KT 10SM CLR 26/04 A3014 RMK AO2 T02590039
KPYX 281935Z AUTO 34011G18KT 10SM CLR 26/04 A3015 RMK AO2 T02610043
KPYX 281915Z AUTO 03010G17KT 10SM CLR 25/04 A3016 RMK AO2 T02520041
KPYX 281855Z AUTO 35010G19KT 7SM CLR 25/05 A3016 RMK AO2 T02520047
KPYX 281835Z AUTO 36011G17KT 10SM CLR 25/04 A3016 RMK AO2 T02500041
KPYX 281815Z AUTO 02010G16KT 10SM CLR 25/05 A3017 RMK AO2 T02460052
KPYX 281755Z AUTO 03006G15KT 10SM CLR 24/06 A3018 RMK AO2 T02420055 10242 20123
KPYX 281735Z AUTO 02011G18KT 10SM CLR 24/05 A3018 RMK AO2 T02390050
KPYX 281715Z AUTO 35011G18KT 10SM CLR 24/05 A3018 RMK AO2 T02350052
KPYX 281655Z AUTO 36011G18KT 10SM CLR 23/06 A3018 RMK AO2 T02280060
KPYX 281635Z AUTO 01012G19KT 10SM CLR 23/06 A3018 RMK AO2 T02270055
KPYX 281615Z AUTO 36011G18KT 10SM CLR 22/07 A3018 RMK AO2 T02190066
KPYX 281555Z AUTO 01013KT 10SM CLR 21/08 A3018 RMK AO2 T02140077
KPYX 281535Z AUTO 34015G18KT 10SM CLR 21/09 A3018 RMK AO2 T02060092
KPYX 281515Z AUTO 34014G18KT 10SM CLR 20/09 A3018 RMK AO2 T01980093
KPYX 281455Z AUTO 35010KT 10SM CLR 19/10 A3018 RMK AO2 T01900095
KPYX 281435Z AUTO 34012KT 10SM CLR 18/11 A3018 RMK AO2 T01800105
KPYX 281415Z AUTO 34012KT 10SM CLR 17/10 A3016 RMK AO2 T01730102
KPYX 281355Z AUTO 33012KT 10SM CLR 17/11 A3016 RMK AO2 T01660106
KPYX 281335Z AUTO 33011G14KT 10SM CLR 15/10 A3016 RMK AO2 T01520104
KPYX 281315Z AUTO 32010KT 10SM CLR 15/11 A3015 RMK AO2 T01470108
KPYX 281255Z AUTO 31009KT 10SM CLR 14/11 A3014 RMK AO2 T01400105
KPYX 281235Z AUTO 33010KT 10SM CLR 14/11 A3012 RMK AO2 T01350105
KPYX 281215Z AUTO 33011KT 10SM CLR 13/10 A3012 RMK AO2 T01300102
KPYX 281155Z AUTO 33011KT 10SM CLR 12/10 A3012 RMK AO2 T01230098 10141 20122
KPYX 281135Z AUTO 33011KT 10SM SCT110 12/10 A3011 RMK AO2 T01230097
KPYX 281115Z AUTO 33009KT 10SM SCT110 13/10 A3011 RMK AO2 T01270098
KPYX 281055Z AUTO 33009KT 10SM SCT110 13/10 A3010 RMK AO2 T01310100
KPYX 281035Z AUTO 33010KT 10SM SCT110 13/10 A3009 RMK AO2 T01300100
KPYX 281015Z AUTO 33014KT 10SM CLR 13/10 A3008 RMK AO2 T01320102
KPYX 280955Z AUTO 33012KT 10SM CLR 13/10 A3008 RMK AO2 T01310102
KPYX 280935Z AUTO 33011KT 10SM CLR 13/10 A3008 RMK AO2 T01330101
KPYX 280915Z AUTO 34011KT 10SM SCT100 14/10 A3006 RMK AO2 T01350101
KPYX 280855Z AUTO 34011KT 10SM BKN100 14/11 A3006 RMK AO2 T01350105
KPYX 280835Z AUTO 34010KT 10SM CLR 13/10 A3007 RMK AO2 T01320103
KPYX 280815Z AUTO 31012KT 10SM SCT110 14/10 A3008 RMK AO2 T01350101
KPYX 280755Z AUTO 35008KT 10SM BKN110 14/10 A3005 RMK AO2 T01350100
KPYX 280735Z AUTO 33010KT 10SM SCT110 14/10 A3008 RMK AO2 T01370101
KPYX 280715Z AUTO 33010KT 10SM CLR 14/10 A3006 RMK AO2 T01390100
KPYX 280655Z AUTO 34008KT 10SM CLR 14/10 A3006 RMK AO2 T01360101
KPYX 280635Z AUTO 32009KT 10SM CLR 14/10 A3007 RMK AO2 T01350104
KPYX 280615Z AUTO 35009KT 10SM CLR 14/11 A3004 RMK AO2 T01380105
KPYX 280555Z AUTO 02007KT 10SM CLR 14/11 A3003 RMK AO2 T01410106 10268 20141 402830141
KPYX 280535Z AUTO 36016G25KT 10SM CLR 15/11 A3004 RMK AO2 T01450105
KPYX 280515Z AUTO 36019G33KT 10SM CLR 15/10 A3002 RMK AO2 T01460103
KPYX 280455Z AUTO 36022G37KT 10SM CLR 15/10 A3000 RMK AO2 T01480103
KPYX 280435Z AUTO 36027G39KT 10SM SCT095 SCT120 15/11 A2999 RMK AO2 T01490106
KPYX 280415Z AUTO 36031G39KT 10SM BKN095 BKN120 15/11 A3004 RMK AO2 T01500108
KPYX 280355Z AUTO 35031G43KT 10SM CLR 15/11 A3004 RMK AO2 T01470112
KPYX 280335Z AUTO 35038G55KT 10SM CLR 15/11 A2997 RMK AO2 T01510114
KPYX 280315Z AUTO 36028G38KT 10SM SCT120 15/12 A2997 RMK AO2 T01490116
KPYX 280255Z AUTO 35023G32KT 10SM SCT037 SCT046 BKN120 16/12 A3002 RMK AO2 T01550121
KPYX 280235Z AUTO 34036G48KT 10SM SCT033 BKN046 22/14 A3001 RMK AO2 T02220136
KPYX 280215Z AUTO 01015G19KT 10SM CLR 22/14 A2995 RMK AO2 T02200140
KPYX 280155Z AUTO 02009KT 10SM CLR 22/15 A2993 RMK AO2 T02220145
KPYX 280135Z AUTO 03008KT 10SM CLR 23/15 A2991 RMK AO2 T02280145
KPYX 280115Z AUTO 02007KT 10SM CLR 24/14 A2992 RMK AO2 T02400141
KPYX 280055Z AUTO 03010KT 10SM CLR 25/14 A2991 RMK AO2 T02510139
KPYX 280035Z AUTO 03009KT 10SM CLR 26/14 A2990 RMK AO2 T02600144
KPYX 280015Z AUTO 03010KT 10SM CLR 26/15 A2989 RMK AO2 T02610146
KPYX 272355Z AUTO 03009KT 10SM CLR 27/15 A2989 RMK AO2 T02670149 10283 20248
KPYX 272335Z AUTO 03010KT 10SM CLR 27/15 A2990 RMK AO2 T02700147


Page loaded:  11:33 UTC  |   04:33 AM Pacific  |   05:33 AM Mountain  |   06:33 AM Central  |   07:33 AM Eastern

 

ADVISORIES

FORECASTS

FORECASTS

OBSERVATIONS

USER TOOLS

ABOUT US